sensor_id;sensor_type;location;lat;lon;timestamp;pressure;altitude;pressure_sealevel;temperature;humidity
9261;BME280;4667;42.726;23.252;2024-03-23T00:54:36;95161.31;;;3.47;57.04
9261;BME280;4667;42.726;23.252;2024-03-23T00:57:03;95092.41;;;3.29;57.04
9261;BME280;4667;42.726;23.252;2024-03-23T00:59:29;95083.03;;;3.02;57.58
9261;BME280;4667;42.726;23.252;2024-03-23T01:01:58;94579.91;;;-0.24;57.24
9261;BME280;4667;42.726;23.252;2024-03-23T01:04:25;94986.16;;;2.53;57.37
9261;BME280;4667;42.726;23.252;2024-03-23T01:06:53;95033.00;;;2.73;56.78
9261;BME280;4667;42.726;23.252;2024-03-23T01:09:19;95204.78;;;3.79;56.97
9261;BME280;4667;42.726;23.252;2024-03-23T01:11:46;94696.13;;;0.80;56.65
9261;BME280;4667;42.726;23.252;2024-03-23T01:14:12;94470.97;;;-0.90;56.84
9261;BME280;4667;42.726;23.252;2024-03-23T01:16:39;95092.06;;;3.12;57.17
9261;BME280;4667;42.726;23.252;2024-03-23T01:19:06;95125.03;;;3.45;56.84
9261;BME280;4667;42.726;23.252;2024-03-23T01:21:34;94896.97;;;1.53;56.59
9261;BME280;4667;42.726;23.252;2024-03-23T01:24:00;94966.00;;;2.16;56.93
9261;BME280;4667;42.726;23.252;2024-03-23T01:26:28;94935.97;;;1.87;57.38
9261;BME280;4667;42.726;23.252;2024-03-23T01:28:54;94993.00;;;2.41;57.17
9261;BME280;4667;42.726;23.252;2024-03-23T01:31:21;95040.19;;;2.84;57.28
9261;BME280;4667;42.726;23.252;2024-03-23T01:33:47;95124.47;;;3.30;57.33
9261;BME280;4667;42.726;23.252;2024-03-23T01:36:16;95119.28;;;3.23;57.35
9261;BME280;4667;42.726;23.252;2024-03-23T01:38:42;94568.13;;;-0.40;56.88
9261;BME280;4667;42.726;23.252;2024-03-23T01:41:09;94958.97;;;2.09;57.26
9261;BME280;4667;42.726;23.252;2024-03-23T01:43:35;94527.97;;;-0.70;57.50
9261;BME280;4667;42.726;23.252;2024-03-23T01:46:02;95318.91;;;4.04;57.92
9261;BME280;4667;42.726;23.252;2024-03-23T01:48:28;95116.91;;;3.08;57.94
9261;BME280;4667;42.726;23.252;2024-03-23T01:50:55;95079.84;;;2.80;57.37
9261;BME280;4667;42.726;23.252;2024-03-23T01:53:23;94896.97;;;1.67;57.59
9261;BME280;4667;42.726;23.252;2024-03-23T01:55:55;94972.41;;;2.06;57.50
9261;BME280;4667;42.726;23.252;2024-03-23T01:58:22;94921.59;;;1.64;57.60
9261;BME280;4667;42.726;23.252;2024-03-23T02:00:49;95274.56;;;3.97;57.68
9261;BME280;4667;42.726;23.252;2024-03-23T02:03:25;94905.38;;;1.49;58.02
9261;BME280;4667;42.726;23.252;2024-03-23T02:05:53;94823.59;;;0.98;57.90
9261;BME280;4667;42.726;23.252;2024-03-23T02:08:20;95183.22;;;3.26;58.00
9261;BME280;4667;42.726;23.252;2024-03-23T02:10:52;94880.97;;;1.23;57.75
9261;BME280;4667;42.726;23.252;2024-03-23T02:13:19;94564.75;;;-0.88;58.19
9261;BME280;4667;42.726;23.252;2024-03-23T02:15:47;95187.84;;;3.10;57.89
9261;BME280;4667;42.726;23.252;2024-03-23T02:18:13;95113.13;;;2.58;58.10
9261;BME280;4667;42.726;23.252;2024-03-23T02:20:41;94686.66;;;0.06;57.81
9261;BME280;4667;42.726;23.252;2024-03-23T02:23:14;94541.84;;;-0.91;58.08
9261;BME280;4667;42.726;23.252;2024-03-23T02:25:42;95042.03;;;2.24;58.02
9261;BME280;4667;42.726;23.252;2024-03-23T02:28:08;94941.16;;;1.67;57.86
9261;BME280;4667;42.726;23.252;2024-03-23T02:30:35;95138.75;;;2.81;58.02
9261;BME280;4667;42.726;23.252;2024-03-23T02:33:01;94862.72;;;0.97;57.91
9261;BME280;4667;42.726;23.252;2024-03-23T02:35:28;95158.19;;;2.98;57.61
9261;BME280;4667;42.726;23.252;2024-03-23T02:37:54;94939.38;;;1.54;57.73
9261;BME280;4667;42.726;23.252;2024-03-23T02:40:24;94468.31;;;-1.51;58.05
9261;BME280;4667;42.726;23.252;2024-03-23T02:42:50;94654.06;;;-0.23;58.27
9261;BME280;4667;42.726;23.252;2024-03-23T02:45:17;95148.56;;;3.05;58.33
9261;BME280;4667;42.726;23.252;2024-03-23T02:47:43;95028.03;;;2.19;58.45
9261;BME280;4667;42.726;23.252;2024-03-23T02:50:11;95288.66;;;3.83;58.74
9261;BME280;4667;42.726;23.252;2024-03-23T02:52:37;94984.97;;;1.83;58.60
9261;BME280;4667;42.726;23.252;2024-03-23T02:55:04;94836.78;;;1.17;58.16
9261;BME280;4667;42.726;23.252;2024-03-23T02:57:33;94853.97;;;1.18;58.15
9261;BME280;4667;42.726;23.252;2024-03-23T03:00:00;95139.97;;;2.85;58.08
9261;BME280;4667;42.726;23.252;2024-03-23T03:02:26;95184.25;;;3.18;58.03
9261;BME280;4667;42.726;23.252;2024-03-23T03:04:54;95268.81;;;3.75;57.72
9261;BME280;4667;42.726;23.252;2024-03-23T03:07:20;95176.22;;;3.00;58.41
9261;BME280;4667;42.726;23.252;2024-03-23T03:09:47;95229.13;;;3.47;58.69
9261;BME280;4667;42.726;23.252;2024-03-23T03:12:13;95270.22;;;3.64;59.13
9261;BME280;4667;42.726;23.252;2024-03-23T03:14:42;95125.34;;;2.71;58.98
9261;BME280;4667;42.726;23.252;2024-03-23T03:17:08;95164.22;;;2.92;58.83
9261;BME280;4667;42.726;23.252;2024-03-23T03:19:35;95241.75;;;3.36;59.26
9261;BME280;4667;42.726;23.252;2024-03-23T03:22:01;95270.63;;;3.61;59.13
9261;BME280;4667;42.726;23.252;2024-03-23T03:24:29;95172.44;;;2.89;59.07
9261;BME280;4667;42.726;23.252;2024-03-23T03:26:55;95270.66;;;3.48;59.40
9261;BME280;4667;42.726;23.252;2024-03-23T03:29:23;95115.13;;;2.36;59.55
9261;BME280;4667;42.726;23.252;2024-03-23T03:31:50;95007.59;;;1.76;59.34
9261;BME280;4667;42.726;23.252;2024-03-23T03:34:17;95103.72;;;2.37;59.23
9261;BME280;4667;42.726;23.252;2024-03-23T03:36:43;95277.28;;;3.18;59.58
9261;BME280;4667;42.726;23.252;2024-03-23T03:39:10;95265.81;;;3.25;60.14
9261;BME280;4667;42.726;23.252;2024-03-23T03:41:36;95180.22;;;2.63;60.59
9261;BME280;4667;42.726;23.252;2024-03-23T03:44:04;95283.47;;;3.30;60.35
9261;BME280;4667;42.726;23.252;2024-03-23T03:46:30;95095.03;;;2.03;60.22
9261;BME280;4667;42.726;23.252;2024-03-23T03:48:58;95270.22;;;3.31;60.44
9261;BME280;4667;42.726;23.252;2024-03-23T03:51:25;95195.63;;;2.71;60.21
9261;BME280;4667;42.726;23.252;2024-03-23T03:53:52;95073.84;;;2.00;60.18
9261;BME280;4667;42.726;23.252;2024-03-23T03:56:18;95092.59;;;1.82;61.17
9261;BME280;4667;42.726;23.252;2024-03-23T03:58:47;94969.88;;;1.25;59.81
9261;BME280;4667;42.726;23.252;2024-03-23T04:01:13;94815.75;;;0.17;60.05
9261;BME280;4667;42.726;23.252;2024-03-23T04:03:40;94884.59;;;0.68;60.34
9261;BME280;4667;42.726;23.252;2024-03-23T04:06:11;94889.00;;;0.74;60.26
9261;BME280;4667;42.726;23.252;2024-03-23T04:08:40;94491.56;;;-1.86;60.15
9261;BME280;4667;42.726;23.252;2024-03-23T04:11:06;95037.78;;;1.70;60.06
9261;BME280;4667;42.726;23.252;2024-03-23T04:13:33;95001.53;;;1.49;60.11
9261;BME280;4667;42.726;23.252;2024-03-23T04:15:59;95191.03;;;2.53;59.85
9261;BME280;4667;42.726;23.252;2024-03-23T04:18:27;94695.88;;;-0.74;59.49
9261;BME280;4667;42.726;23.252;2024-03-23T04:20:53;95147.13;;;2.23;59.85
9261;BME280;4667;42.726;23.252;2024-03-23T04:23:22;95134.53;;;2.20;59.68
9261;BME280;4667;42.726;23.252;2024-03-23T04:25:49;94902.31;;;0.58;59.56
9261;BME280;4667;42.726;23.252;2024-03-23T04:28:18;94743.63;;;-0.48;59.51
9261;BME280;4667;42.726;23.252;2024-03-23T04:30:45;94542.56;;;-1.73;59.93
9261;BME280;4667;42.726;23.252;2024-03-23T04:33:13;95218.66;;;2.47;60.31
9261;BME280;4667;42.726;23.252;2024-03-23T04:35:39;95281.25;;;2.87;60.25
9261;BME280;4667;42.726;23.252;2024-03-23T04:38:06;95295.06;;;2.94;60.98
9261;BME280;4667;42.726;23.252;2024-03-23T04:43:48;95272.97;;;2.64;61.10
9261;BME280;4667;42.726;23.252;2024-03-23T04:46:15;95216.22;;;2.32;60.90
9261;BME280;4667;42.726;23.252;2024-03-23T04:51:22;95245.09;;;2.51;61.34
9261;BME280;4667;42.726;23.252;2024-03-23T04:53:50;95087.09;;;1.57;60.52
9261;BME280;4667;42.726;23.252;2024-03-23T04:56:31;95310.88;;;2.86;61.02
9261;BME280;4667;42.726;23.252;2024-03-23T04:59:01;95154.63;;;1.85;61.07
9261;BME280;4667;42.726;23.252;2024-03-23T05:01:27;95255.72;;;2.56;61.19
9261;BME280;4667;42.726;23.252;2024-03-23T05:06:43;95297.88;;;2.93;60.92
9261;BME280;4667;42.726;23.252;2024-03-23T05:09:11;95306.09;;;2.96;61.17
9261;BME280;4667;42.726;23.252;2024-03-23T05:11:37;95303.25;;;2.91;60.89
9261;BME280;4667;42.726;23.252;2024-03-23T05:14:07;95061.25;;;1.42;60.51
9261;BME280;4667;42.726;23.252;2024-03-23T05:16:34;95013.25;;;1.25;60.00
9261;BME280;4667;42.726;23.252;2024-03-23T05:19:01;94997.88;;;1.30;59.92
9261;BME280;4667;42.726;23.252;2024-03-23T05:21:28;94561.09;;;-1.42;59.60
9261;BME280;4667;42.726;23.252;2024-03-23T05:23:56;95173.56;;;2.27;59.73
9261;BME280;4667;42.726;23.252;2024-03-23T05:26:22;95146.69;;;2.20;59.25
9261;BME280;4667;42.726;23.252;2024-03-23T05:28:49;95026.97;;;1.67;59.59
9261;BME280;4667;42.726;23.252;2024-03-23T05:31:25;95124.72;;;2.49;58.63
9261;BME280;4667;42.726;23.252;2024-03-23T05:33:52;94924.28;;;1.16;58.72
9261;BME280;4667;42.726;23.252;2024-03-23T05:36:19;94478.44;;;-1.57;58.39
9261;BME280;4667;42.726;23.252;2024-03-23T05:39:00;94781.16;;;0.51;58.12
9261;BME280;4667;42.726;23.252;2024-03-23T05:41:28;94863.16;;;1.14;57.74
9261;BME280;4667;42.726;23.252;2024-03-23T05:43:54;95141.94;;;2.96;57.68
9261;BME280;4667;42.726;23.252;2024-03-23T05:46:21;94583.38;;;-0.58;57.60
9261;BME280;4667;42.726;23.252;2024-03-23T05:48:50;94540.88;;;-0.77;57.06
9261;BME280;4667;42.726;23.252;2024-03-23T05:51:17;94843.78;;;1.36;56.98
9261;BME280;4667;42.726;23.252;2024-03-23T05:53:44;94658.94;;;0.20;56.91
9261;BME280;4667;42.726;23.252;2024-03-23T05:56:11;94635.59;;;0.13;56.85
9261;BME280;4667;42.726;23.252;2024-03-23T05:58:38;94869.56;;;1.77;56.99
9261;BME280;4667;42.726;23.252;2024-03-23T06:01:05;95163.84;;;3.73;56.36
9261;BME280;4667;42.726;23.252;2024-03-23T06:03:34;94664.19;;;0.60;55.99
9261;BME280;4667;42.726;23.252;2024-03-23T06:06:08;94572.59;;;0.26;55.51
9261;BME280;4667;42.726;23.252;2024-03-23T06:08:37;95316.22;;;4.88;55.50
9261;BME280;4667;42.726;23.252;2024-03-23T06:11:04;95026.78;;;2.88;55.10
9261;BME280;4667;42.726;23.252;2024-03-23T06:13:32;94875.09;;;2.27;55.09
9261;BME280;4667;42.726;23.252;2024-03-23T06:15:59;94943.78;;;2.91;55.24
9261;BME280;4667;42.726;23.252;2024-03-23T06:20:54;95036.53;;;3.63;54.45
9261;BME280;4667;42.726;23.252;2024-03-23T06:23:40;94627.44;;;0.96;54.28
9261;BME280;4667;42.726;23.252;2024-03-23T06:28:54;94641.75;;;1.25;53.79
9261;BME280;4667;42.726;23.252;2024-03-23T06:31:40;95300.00;;;5.36;53.84
9261;BME280;4667;42.726;23.252;2024-03-23T06:34:09;95193.59;;;4.87;53.91
9261;BME280;4667;42.726;23.252;2024-03-23T06:36:43;95022.19;;;3.79;53.53
9261;BME280;4667;42.726;23.252;2024-03-23T06:39:40;95289.16;;;5.58;53.60
9261;BME280;4667;42.726;23.252;2024-03-23T06:42:11;94953.72;;;3.14;53.99
9261;BME280;4667;42.726;23.252;2024-03-23T06:44:38;94935.88;;;3.18;53.32
9261;BME280;4667;42.726;23.252;2024-03-23T06:47:19;95296.03;;;5.34;53.99
9261;BME280;4667;42.726;23.252;2024-03-23T06:50:00;95008.00;;;3.69;53.99
9261;BME280;4667;42.726;23.252;2024-03-23T06:52:30;94910.97;;;2.83;53.75
9261;BME280;4667;42.726;23.252;2024-03-23T06:55:01;95146.03;;;4.78;53.93
9261;BME280;4667;42.726;23.252;2024-03-23T06:57:44;95282.97;;;5.52;53.53
9261;BME280;4667;42.726;23.252;2024-03-23T07:00:51;94949.09;;;3.54;53.47
9261;BME280;4667;42.726;23.252;2024-03-23T07:03:19;95268.84;;;5.60;54.05
9261;BME280;4667;42.726;23.252;2024-03-23T07:05:48;94754.59;;;2.65;53.12
9261;BME280;4667;42.726;23.252;2024-03-23T07:13:39;95262.44;;;6.54;51.69
9261;BME280;4667;42.726;23.252;2024-03-23T07:16:07;95267.94;;;6.64;51.89
9261;BME280;4667;42.726;23.252;2024-03-23T07:18:37;95256.09;;;6.92;51.34
9261;BME280;4667;42.726;23.252;2024-03-23T07:21:07;95120.09;;;6.30;50.38
9261;BME280;4667;42.726;23.252;2024-03-23T07:23:33;95097.22;;;6.37;50.34
9261;BME280;4667;42.726;23.252;2024-03-23T07:26:12;95083.56;;;6.47;49.18
9261;BME280;4667;42.726;23.252;2024-03-23T07:28:38;95238.63;;;7.39;48.92
9261;BME280;4667;42.726;23.252;2024-03-23T07:31:23;95220.81;;;7.41;48.66
9261;BME280;4667;42.726;23.252;2024-03-23T07:33:51;95197.00;;;7.54;48.92
9261;BME280;4667;42.726;23.252;2024-03-23T07:36:17;95191.41;;;7.63;48.02
9261;BME280;4667;42.726;23.252;2024-03-23T07:38:44;95104.84;;;7.27;48.35
9261;BME280;4667;42.726;23.252;2024-03-23T07:41:11;94829.69;;;5.63;47.71
9261;BME280;4667;42.726;23.252;2024-03-23T07:43:40;94663.28;;;4.50;49.40
9261;BME280;4667;42.726;23.252;2024-03-23T07:46:06;94833.28;;;6.04;49.13
9261;BME280;4667;42.726;23.252;2024-03-23T07:48:36;94771.88;;;5.77;48.21
9261;BME280;4667;42.726;23.252;2024-03-23T07:51:03;94635.34;;;5.16;48.48
9261;BME280;4667;42.726;23.252;2024-03-23T07:53:31;94824.38;;;6.69;48.12
9261;BME280;4667;42.726;23.252;2024-03-23T07:56:01;95231.63;;;9.80;45.15
9261;BME280;4667;42.726;23.252;2024-03-23T07:58:29;95036.13;;;9.29;43.98
9261;BME280;4667;42.726;23.252;2024-03-23T08:06:09;95201.13;;;12.68;38.02
9261;BME280;4667;42.726;23.252;2024-03-23T08:08:40;94880.22;;;10.87;37.36
9261;BME280;4667;42.726;23.252;2024-03-23T08:11:20;95060.66;;;12.74;36.36
9261;BME280;4667;42.726;23.252;2024-03-23T08:13:48;95222.41;;;14.00;35.64
9261;BME280;4667;42.726;23.252;2024-03-23T08:16:15;94993.41;;;12.96;36.08
9261;BME280;4667;42.726;23.252;2024-03-23T08:18:43;95127.19;;;14.09;34.70
9261;BME280;4667;42.726;23.252;2024-03-23T08:21:11;94751.31;;;11.22;34.47
9261;BME280;4667;42.726;23.252;2024-03-23T08:23:38;95205.97;;;14.03;35.66
9261;BME280;4667;42.726;23.252;2024-03-23T08:28:41;94777.75;;;11.98;34.33
9261;BME280;4667;42.726;23.252;2024-03-23T08:31:10;95211.53;;;15.55;33.20
9261;BME280;4667;42.726;23.252;2024-03-23T08:36:17;95166.97;;;16.05;32.84
9261;BME280;4667;42.726;23.252;2024-03-23T08:38:44;95198.25;;;16.37;31.16
9261;BME280;4667;42.726;23.252;2024-03-23T08:41:11;95058.31;;;15.94;30.80
9261;BME280;4667;42.726;23.252;2024-03-23T08:43:39;95175.97;;;17.14;30.57
9261;BME280;4667;42.726;23.252;2024-03-23T08:46:07;94992.03;;;16.16;30.67
9261;BME280;4667;42.726;23.252;2024-03-23T08:48:34;95169.91;;;17.60;30.62
9261;BME280;4667;42.726;23.252;2024-03-23T08:51:03;95085.25;;;16.68;29.73
9261;BME280;4667;42.726;23.252;2024-03-23T08:53:40;95138.44;;;17.62;29.02
9261;BME280;4667;42.726;23.252;2024-03-23T08:56:09;95168.81;;;17.80;29.63
9261;BME280;4667;42.726;23.252;2024-03-23T08:58:38;94962.63;;;16.78;28.63
9261;BME280;4667;42.726;23.252;2024-03-23T09:01:07;94986.59;;;17.65;28.75
9261;BME280;4667;42.726;23.252;2024-03-23T09:03:39;94553.75;;;14.60;28.11
9261;BME280;4667;42.726;23.252;2024-03-23T09:06:21;95046.28;;;18.11;27.96
9261;BME280;4667;42.726;23.252;2024-03-23T09:08:51;94904.22;;;18.14;26.07
9261;BME280;4667;42.726;23.252;2024-03-23T09:11:18;94831.31;;;18.27;25.60
9261;BME280;4667;42.726;23.252;2024-03-23T09:13:45;94989.41;;;19.45;25.84
9261;BME280;4667;42.726;23.252;2024-03-23T09:16:12;94717.75;;;18.21;25.25
9261;BME280;4667;42.726;23.252;2024-03-23T09:18:38;94987.31;;;20.47;24.51
9261;BME280;4667;42.726;23.252;2024-03-23T09:21:11;94620.22;;;17.44;25.03
9261;BME280;4667;42.726;23.252;2024-03-23T09:23:38;94848.00;;;18.64;26.24
9261;BME280;4667;42.726;23.252;2024-03-23T09:26:07;94789.22;;;19.04;26.33
9261;BME280;4667;42.726;23.252;2024-03-23T09:28:33;94824.06;;;19.30;24.98
9261;BME280;4667;42.726;23.252;2024-03-23T09:31:03;95062.88;;;20.36;25.20
9261;BME280;4667;42.726;23.252;2024-03-23T09:33:29;95044.19;;;20.88;24.11
9261;BME280;4667;42.726;23.252;2024-03-23T09:35:57;95044.81;;;20.67;25.06
9261;BME280;4667;42.726;23.252;2024-03-23T09:38:24;94686.41;;;18.84;24.38
9261;BME280;4667;42.726;23.252;2024-03-23T09:40:53;94935.88;;;20.89;23.85
9261;BME280;4667;42.726;23.252;2024-03-23T09:43:21;94922.59;;;21.01;24.48
9261;BME280;4667;42.726;23.252;2024-03-23T09:45:50;95012.34;;;21.59;24.06
9261;BME280;4667;42.726;23.252;2024-03-23T09:48:17;94602.44;;;18.59;23.54
9261;BME280;4667;42.726;23.252;2024-03-23T09:50:57;94961.84;;;21.52;22.80
9261;BME280;4667;42.726;23.252;2024-03-23T09:53:23;94928.69;;;21.57;23.04
9261;BME280;4667;42.726;23.252;2024-03-23T09:55:50;94889.66;;;21.60;22.37
9261;BME280;4667;42.726;23.252;2024-03-23T09:58:17;94623.09;;;20.21;22.73
9261;BME280;4667;42.726;23.252;2024-03-23T10:00:46;94979.94;;;23.19;21.16
9261;BME280;4667;42.726;23.252;2024-03-23T10:03:12;94940.16;;;23.37;20.57
9261;BME280;4667;42.726;23.252;2024-03-23T10:05:40;94748.44;;;21.34;20.26
9261;BME280;4667;42.726;23.252;2024-03-23T10:08:18;94557.81;;;19.76;21.90
9261;BME280;4667;42.726;23.252;2024-03-23T10:10:46;94959.97;;;22.33;21.37
9261;BME280;4667;42.726;23.252;2024-03-23T10:13:24;94882.09;;;22.12;20.89
9261;BME280;4667;42.726;23.252;2024-03-23T10:15:56;94852.00;;;21.77;20.45
9261;BME280;4667;42.726;23.252;2024-03-23T10:18:23;94997.50;;;23.17;20.54
9261;BME280;4667;42.726;23.252;2024-03-23T10:20:52;94974.97;;;23.09;21.10
9261;BME280;4667;42.726;23.252;2024-03-23T10:23:18;94838.63;;;22.10;20.42
9261;BME280;4667;42.726;23.252;2024-03-23T10:25:45;94925.22;;;23.15;20.45
9261;BME280;4667;42.726;23.252;2024-03-23T10:28:11;94988.25;;;24.49;19.68
9261;BME280;4667;42.726;23.252;2024-03-23T10:30:38;94916.25;;;23.84;20.25
9261;BME280;4667;42.726;23.252;2024-03-23T10:33:10;94911.91;;;24.88;18.68
9261;BME280;4667;42.726;23.252;2024-03-23T10:35:38;94935.63;;;24.67;19.15
9261;BME280;4667;42.726;23.252;2024-03-23T10:38:05;94981.97;;;25.92;18.29
9261;BME280;4667;42.726;23.252;2024-03-23T10:40:34;94948.31;;;25.89;18.14
9261;BME280;4667;42.726;23.252;2024-03-23T10:43:05;94890.28;;;26.38;16.47
9261;BME280;4667;42.726;23.252;2024-03-23T10:45:33;94891.66;;;26.28;16.85
9261;BME280;4667;42.726;23.252;2024-03-23T10:47:59;94844.38;;;25.83;17.30
9261;BME280;4667;42.726;23.252;2024-03-23T10:50:30;94755.34;;;25.01;16.31
9261;BME280;4667;42.726;23.252;2024-03-23T10:53:10;94792.19;;;24.77;17.09
9261;BME280;4667;42.726;23.252;2024-03-23T10:55:38;94946.44;;;25.90;16.44
9261;BME280;4667;42.726;23.252;2024-03-23T10:58:07;94946.00;;;25.25;17.28
9261;BME280;4667;42.726;23.252;2024-03-23T11:00:34;94817.22;;;24.34;17.38
9261;BME280;4667;42.726;23.252;2024-03-23T11:03:32;94883.16;;;25.08;17.54
9261;BME280;4667;42.726;23.252;2024-03-23T11:06:02;94753.19;;;23.71;17.74
9261;BME280;4667;42.726;23.252;2024-03-23T11:08:33;94816.16;;;25.46;17.57
9261;BME280;4667;42.726;23.252;2024-03-23T11:11:13;94789.09;;;25.77;16.65
9261;BME280;4667;42.726;23.252;2024-03-23T11:13:39;94796.81;;;25.44;16.02
9261;BME280;4667;42.726;23.252;2024-03-23T11:16:17;94731.50;;;24.87;15.42
9261;BME280;4667;42.726;23.252;2024-03-23T11:18:47;94622.47;;;23.74;16.07
9261;BME280;4667;42.726;23.252;2024-03-23T11:24:16;94854.41;;;25.32;16.30
9261;BME280;4667;42.726;23.252;2024-03-23T11:26:49;94796.75;;;24.77;15.83
9261;BME280;4667;42.726;23.252;2024-03-23T11:29:26;94832.53;;;25.72;15.38
9261;BME280;4667;42.726;23.252;2024-03-23T11:31:53;94597.31;;;23.82;15.60
9261;BME280;4667;42.726;23.252;2024-03-23T11:34:19;94867.44;;;25.97;16.45
9261;BME280;4667;42.726;23.252;2024-03-23T11:36:47;94864.97;;;26.27;14.64
9261;BME280;4667;42.726;23.252;2024-03-23T11:39:14;94692.88;;;25.53;15.25
9261;BME280;4667;42.726;23.252;2024-03-23T11:41:57;94711.31;;;26.06;15.12
9261;BME280;4667;42.726;23.252;2024-03-23T11:44:26;94668.94;;;25.90;15.00
9261;BME280;4667;42.726;23.252;2024-03-23T11:46:53;94748.53;;;26.58;14.59
9261;BME280;4667;42.726;23.252;2024-03-23T11:49:35;94834.91;;;27.39;14.97
9261;BME280;4667;42.726;23.252;2024-03-23T11:52:16;94825.47;;;27.56;13.79
9261;BME280;4667;42.726;23.252;2024-03-23T11:55:15;94818.91;;;27.57;13.46
9261;BME280;4667;42.726;23.252;2024-03-23T11:58:17;94472.19;;;24.66;15.10
9261;BME280;4667;42.726;23.252;2024-03-23T12:00:49;94703.19;;;26.06;14.53
9261;BME280;4667;42.726;23.252;2024-03-23T12:03:23;94599.34;;;25.84;14.18
9261;BME280;4667;42.726;23.252;2024-03-23T12:05:53;94628.78;;;26.58;14.60
9261;BME280;4667;42.726;23.252;2024-03-23T12:08:31;94793.03;;;27.86;13.77
9261;BME280;4667;42.726;23.252;2024-03-23T12:11:05;94463.41;;;25.76;14.52
9261;BME280;4667;42.726;23.252;2024-03-23T12:13:36;94350.44;;;25.29;12.89
9261;BME280;4667;42.726;23.252;2024-03-23T12:16:12;94779.94;;;28.29;13.08
9261;BME280;4667;42.726;23.252;2024-03-23T12:18:41;94628.88;;;27.52;12.84
9261;BME280;4667;42.726;23.252;2024-03-23T12:21:07;94587.50;;;27.21;12.94
9261;BME280;4667;42.726;23.252;2024-03-23T12:23:34;94688.69;;;27.69;12.94
9261;BME280;4667;42.726;23.252;2024-03-23T12:26:01;94770.66;;;28.30;11.30
9261;BME280;4667;42.726;23.252;2024-03-23T12:28:28;94775.69;;;27.94;10.95
9261;BME280;4667;42.726;23.252;2024-03-23T12:30:55;94767.41;;;27.54;10.95
9261;BME280;4667;42.726;23.252;2024-03-23T12:33:22;94761.00;;;27.12;11.38
9261;BME280;4667;42.726;23.252;2024-03-23T12:35:48;94754.81;;;27.12;11.12
9261;BME280;4667;42.726;23.252;2024-03-23T12:38:15;94745.38;;;28.19;10.34
9261;BME280;4667;42.726;23.252;2024-03-23T12:40:41;94753.31;;;28.01;10.92
9261;BME280;4667;42.726;23.252;2024-03-23T12:43:08;94732.47;;;28.09;9.99
9261;BME280;4667;42.726;23.252;2024-03-23T12:45:34;94729.66;;;27.38;10.18
9261;BME280;4667;42.726;23.252;2024-03-23T12:48:03;94733.16;;;27.12;10.40
9261;BME280;4667;42.726;23.252;2024-03-23T12:50:29;94735.38;;;27.06;10.63
9261;BME280;4667;42.726;23.252;2024-03-23T12:52:56;94734.28;;;27.67;11.15
9261;BME280;4667;42.726;23.252;2024-03-23T12:55:22;94733.50;;;27.37;10.43
9261;BME280;4667;42.726;23.252;2024-03-23T12:57:48;94721.63;;;27.71;10.14
9261;BME280;4667;42.726;23.252;2024-03-23T13:00:15;94720.38;;;27.09;10.58
9261;BME280;4667;42.726;23.252;2024-03-23T13:02:42;94715.50;;;26.95;10.84
9261;BME280;4667;42.726;23.252;2024-03-23T13:05:09;94708.84;;;28.09;11.03
9261;BME280;4667;42.726;23.252;2024-03-23T13:07:36;94715.53;;;27.52;10.59
9261;BME280;4667;42.726;23.252;2024-03-23T13:10:04;94715.41;;;27.71;10.68
9261;BME280;4667;42.726;23.252;2024-03-23T13:12:31;94689.25;;;28.23;10.09
9261;BME280;4667;42.726;23.252;2024-03-23T13:14:58;94697.75;;;28.21;10.56
9261;BME280;4667;42.726;23.252;2024-03-23T13:17:25;94687.28;;;27.53;11.41
9261;BME280;4667;42.726;23.252;2024-03-23T13:19:52;94687.06;;;27.98;10.43
9261;BME280;4667;42.726;23.252;2024-03-23T13:22:20;94684.31;;;27.05;10.85
9261;BME280;4667;42.726;23.252;2024-03-23T13:24:46;94680.34;;;28.22;10.25
9261;BME280;4667;42.726;23.252;2024-03-23T13:27:13;94673.72;;;28.16;10.96
9261;BME280;4667;42.726;23.252;2024-03-23T13:29:39;94568.56;;;27.55;11.00
9261;BME280;4667;42.726;23.252;2024-03-23T13:32:07;94663.72;;;27.23;11.29
9261;BME280;4667;42.726;23.252;2024-03-23T13:34:33;94670.28;;;28.23;11.16
9261;BME280;4667;42.726;23.252;2024-03-23T13:37:00;94585.97;;;27.94;11.10
9261;BME280;4667;42.726;23.252;2024-03-23T13:39:28;94649.03;;;27.24;12.06
9261;BME280;4667;42.726;23.252;2024-03-23T13:41:55;94657.44;;;28.16;11.01
9261;BME280;4667;42.726;23.252;2024-03-23T13:44:21;94661.47;;;28.33;10.39
9261;BME280;4667;42.726;23.252;2024-03-23T13:46:48;94655.50;;;27.46;11.00
9261;BME280;4667;42.726;23.252;2024-03-23T13:49:24;94645.81;;;28.16;10.53
9261;BME280;4667;42.726;23.252;2024-03-23T13:51:52;94625.06;;;27.56;10.83
9261;BME280;4667;42.726;23.252;2024-03-23T13:54:18;94646.88;;;27.37;10.98
9261;BME280;4667;42.726;23.252;2024-03-23T13:56:48;94645.75;;;27.08;11.50
9261;BME280;4667;42.726;23.252;2024-03-23T13:59:14;94643.84;;;26.36;11.64
9261;BME280;4667;42.726;23.252;2024-03-23T14:01:40;94645.91;;;26.95;11.84
9261;BME280;4667;42.726;23.252;2024-03-23T14:04:07;94639.78;;;26.99;12.12
9261;BME280;4667;42.726;23.252;2024-03-23T14:06:34;94641.44;;;27.07;11.35
9261;BME280;4667;42.726;23.252;2024-03-23T14:09:00;94638.59;;;26.96;11.98
9261;BME280;4667;42.726;23.252;2024-03-23T14:11:29;94594.19;;;27.01;12.26
9261;BME280;4667;42.726;23.252;2024-03-23T14:13:56;94629.53;;;27.41;12.07
9261;BME280;4667;42.726;23.252;2024-03-23T14:16:23;94623.31;;;27.41;11.87
9261;BME280;4667;42.726;23.252;2024-03-23T14:18:49;94620.84;;;27.62;12.08
9261;BME280;4667;42.726;23.252;2024-03-23T14:21:16;94611.72;;;27.40;11.86
9261;BME280;4667;42.726;23.252;2024-03-23T14:23:42;94612.78;;;27.32;12.26
9261;BME280;4667;42.726;23.252;2024-03-23T14:26:09;94613.09;;;27.61;12.31
9261;BME280;4667;42.726;23.252;2024-03-23T14:28:35;94612.22;;;27.50;13.20
9261;BME280;4667;42.726;23.252;2024-03-23T14:31:03;94615.72;;;26.40;12.42
9261;BME280;4667;42.726;23.252;2024-03-23T14:33:35;94613.78;;;27.51;12.32
9261;BME280;4667;42.726;23.252;2024-03-23T14:36:04;94606.16;;;27.00;12.51
9261;BME280;4667;42.726;23.252;2024-03-23T14:38:30;94601.44;;;27.57;12.04
9261;BME280;4667;42.726;23.252;2024-03-23T14:40:58;94604.44;;;27.48;12.63
9261;BME280;4667;42.726;23.252;2024-03-23T14:43:24;94608.16;;;27.03;12.33
9261;BME280;4667;42.726;23.252;2024-03-23T14:46:07;94608.63;;;26.82;12.41
9261;BME280;4667;42.726;23.252;2024-03-23T14:48:33;94607.59;;;26.63;12.88
9261;BME280;4667;42.726;23.252;2024-03-23T14:51:00;94600.34;;;26.98;12.97